createdAt,value
2022-08-08T00:01:10.130Z,95946.03
2022-08-08T00:03:48.259Z,95941.97
2022-08-08T00:06:34.778Z,95939.06
2022-08-08T00:09:07.696Z,95934.78
2022-08-08T00:11:46.742Z,95933.75
2022-08-08T00:14:58.641Z,95947.66
2022-08-08T00:18:02.117Z,95944.41
2022-08-08T00:20:36.180Z,95943.38
2022-08-08T00:23:10.964Z,95940.72
2022-08-08T00:25:46.786Z,95943.00
2022-08-08T00:28:34.931Z,95941.38
2022-08-08T00:32:16.426Z,95947.19
2022-08-08T00:34:36.294Z,95941.69
2022-08-08T00:37:48.058Z,95945.06
2022-08-08T00:41:12.735Z,95947.97
2022-08-08T00:44:03.434Z,95943.50
2022-08-08T00:46:57.939Z,95943.94
2022-08-08T00:50:11.958Z,95950.09
2022-08-08T00:52:51.432Z,95953.38
2022-08-08T00:55:53.262Z,95945.38
2022-08-08T00:59:10.616Z,95933.50
2022-08-08T01:01:55.844Z,95947.25
2022-08-08T01:04:56.263Z,95939.88
2022-08-08T01:07:56.152Z,95943.56
2022-08-08T01:10:57.880Z,95941.72
2022-08-08T01:13:58.463Z,95946.22
2022-08-08T01:17:04.770Z,95928.38
2022-08-08T01:20:03.904Z,95934.75
2022-08-08T01:23:03.783Z,95936.59
2022-08-08T01:26:13.319Z,95934.97
2022-08-08T01:29:24.394Z,95941.34
2022-08-08T01:32:34.042Z,95926.34
2022-08-08T01:35:40.648Z,95931.69
2022-08-08T01:38:39.479Z,95934.16
2022-08-08T01:41:22.784Z,95937.00
2022-08-08T01:44:03.336Z,95928.88
2022-08-08T01:46:52.252Z,95937.88
2022-08-08T01:49:43.660Z,95935.44
2022-08-08T01:53:06.742Z,95933.78
2022-08-08T01:56:27.087Z,95937.09
2022-08-08T01:58:32.066Z,95941.25
2022-08-08T02:01:20.348Z,95937.56
2022-08-08T02:04:09.938Z,95942.50
2022-08-08T02:06:55.995Z,95942.91
2022-08-08T02:10:01.949Z,95944.16
2022-08-08T02:12:33.704Z,95948.69
2022-08-08T02:15:11.160Z,95947.84
2022-08-08T02:17:53.273Z,95950.75
2022-08-08T02:21:00.751Z,95948.25
2022-08-08T02:23:31.554Z,95946.84
2022-08-08T02:26:10.995Z,95950.97
2022-08-08T02:29:03.141Z,95956.50
2022-08-08T02:32:01.257Z,95952.84
2022-08-08T02:35:08.429Z,95956.97
2022-08-08T02:37:59.172Z,95960.44
2022-08-08T02:40:45.260Z,95953.66
2022-08-08T02:44:36.848Z,95964.75
2022-08-08T02:46:50.543Z,95958.22
2022-08-08T02:50:05.548Z,95961.06
2022-08-08T02:53:21.995Z,95959.66
2022-08-08T02:56:37.538Z,95955.34
2022-08-08T02:59:57.445Z,95959.88
2022-08-08T03:05:00.830Z,95952.09
2022-08-08T03:07:08.139Z,95951.50
2022-08-08T03:10:09.523Z,95955.16
2022-08-08T03:16:04.027Z,95951.28
2022-08-08T03:16:35.794Z,95963.56
2022-08-08T03:19:39.428Z,95954.78
2022-08-08T03:22:51.095Z,95958.88
2022-08-08T03:25:14.537Z,95958.69
2022-08-08T03:27:56.377Z,95957.66
2022-08-08T03:30:27.247Z,95955.59
2022-08-08T03:33:55.254Z,95960.31
2022-08-08T03:36:03.786Z,95959.06
2022-08-08T03:38:57.649Z,95962.38
2022-08-08T03:42:13.378Z,95972.00
2022-08-08T03:44:25.712Z,95971.56
2022-08-08T03:46:54.858Z,95968.91
2022-08-08T03:49:57.432Z,95977.91
2022-08-08T03:52:17.189Z,95971.41
2022-08-08T03:55:02.444Z,95966.06
2022-08-08T03:58:35.844Z,95969.75
2022-08-08T04:00:30.537Z,95981.22
2022-08-08T04:03:11.471Z,95974.06
2022-08-08T04:05:49.728Z,95981.22
2022-08-08T04:08:33.155Z,95977.53
2022-08-08T04:11:10.871Z,95981.19
2022-08-08T04:14:03.170Z,95979.78
2022-08-08T04:16:40.568Z,95981.59
2022-08-08T04:19:23.794Z,95999.34
2022-08-08T04:21:55.823Z,95992.22
2022-08-08T04:24:29.290Z,95999.56
2022-08-08T04:27:00.987Z,95996.69
2022-08-08T04:29:33.253Z,95996.31
2022-08-08T04:32:10.569Z,96004.91
2022-08-08T04:34:43.074Z,96001.22
2022-08-08T04:37:31.792Z,96006.56
2022-08-08T04:40:10.558Z,96011.88
2022-08-08T04:42:57.295Z,96018.03
2022-08-08T04:45:31.345Z,96022.13
2022-08-08T04:48:02.312Z,96022.13
2022-08-08T04:50:38.754Z,96035.22
2022-08-08T04:54:26.737Z,96031.50
2022-08-08T04:56:09.088Z,96031.53
2022-08-08T04:58:38.322Z,96027.25
2022-08-08T05:01:10.845Z,96024.56
2022-08-08T05:04:11.123Z,96024.13
2022-08-08T05:06:40.577Z,96027.97
2022-08-08T05:09:12.047Z,96022.34
2022-08-08T05:11:42.823Z,96027.66
2022-08-08T05:14:16.270Z,96028.25
2022-08-08T05:17:01.546Z,96024.78
2022-08-08T05:20:09.271Z,96021.88
2022-08-08T05:22:36.808Z,96019.78
2022-08-08T05:25:06.199Z,96019.38
2022-08-08T05:27:41.751Z,96028.78
2022-08-08T05:30:15.329Z,96023.03
2022-08-08T05:32:49.286Z,96016.69
2022-08-08T05:35:24.492Z,96027.09
2022-08-08T05:38:02.442Z,96024.63
2022-08-08T05:40:47.186Z,96027.91
2022-08-08T05:43:39.561Z,96032.34
2022-08-08T05:46:14.039Z,96034.50
2022-08-08T05:48:52.365Z,96035.44
2022-08-08T05:51:26.599Z,96045.94
2022-08-08T05:54:27.146Z,96038.47
2022-08-08T05:56:48.241Z,96042.50
2022-08-08T05:59:59.084Z,96035.84
2022-08-08T06:02:40.860Z,96043.00
2022-08-08T06:05:35.143Z,96046.06
2022-08-08T06:08:09.898Z,96045.47
2022-08-08T06:10:50.301Z,96044.06
2022-08-08T06:13:22.578Z,96050.31
2022-08-08T06:15:55.326Z,96058.84
2022-08-08T06:18:33.797Z,96052.59
2022-08-08T06:21:11.759Z,96053.91
2022-08-08T06:24:02.538Z,96062.31
2022-08-08T06:26:44.696Z,96059.72
2022-08-08T06:29:49.513Z,96061.94
2022-08-08T06:32:17.104Z,96050.81
2022-08-08T06:35:12.097Z,96059.94
2022-08-08T06:37:56.074Z,96066.59
2022-08-08T06:40:32.159Z,96072.75
2022-08-08T06:43:05.945Z,96078.16
2022-08-08T06:45:44.749Z,96080.34
2022-08-08T06:48:17.138Z,96091.88
2022-08-08T06:50:46.718Z,96088.84
2022-08-08T06:53:22.816Z,96086.38
2022-08-08T06:56:02.675Z,96091.78
2022-08-08T06:58:34.725Z,96092.31
2022-08-08T07:01:11.613Z,96100.50
2022-08-08T07:04:37.034Z,96098.13
2022-08-08T07:07:10.495Z,96100.53
2022-08-08T07:09:56.416Z,96101.28
2022-08-08T07:12:42.931Z,96106.75
2022-08-08T07:15:32.716Z,96105.88
2022-08-08T07:18:36.909Z,96097.38
2022-08-08T07:21:01.861Z,96110.31
2022-08-08T07:24:02.038Z,96102.84
2022-08-08T07:26:35.624Z,96098.53
2022-08-08T07:29:08.159Z,96104.63
2022-08-08T07:31:41.997Z,96099.50
2022-08-08T07:34:26.643Z,96105.00
2022-08-08T07:37:11.530Z,96113.69
2022-08-08T07:39:45.498Z,96109.00
2022-08-08T07:42:18.723Z,96111.41
2022-08-08T07:44:48.712Z,96113.53
2022-08-08T07:47:38.291Z,96121.31
2022-08-08T07:50:10.002Z,96112.06
2022-08-08T07:52:43.850Z,96111.63
2022-08-08T07:55:20.435Z,96119.94
2022-08-08T07:58:02.558Z,96125.44
2022-08-08T08:00:41.072Z,96120.78
2022-08-08T08:03:23.528Z,96120.84
2022-08-08T08:06:00.328Z,96123.16
2022-08-08T08:08:50.109Z,96125.94
2022-08-08T08:11:34.039Z,96128.78
2022-08-08T08:14:20.229Z,96126.81
2022-08-08T08:16:50.900Z,96130.16
2022-08-08T08:19:22.747Z,96132.84
2022-08-08T08:21:57.395Z,96129.78
2022-08-08T08:24:32.733Z,96122.94
2022-08-08T08:27:08.441Z,96127.84
2022-08-08T08:29:40.098Z,96129.25
2022-08-08T08:32:11.514Z,96132.31
2022-08-08T08:34:43.446Z,96135.38
2022-08-08T08:37:20.367Z,96126.28
2022-08-08T08:40:01.485Z,96127.69
2022-08-08T08:42:35.748Z,96126.09
2022-08-08T08:45:21.884Z,96125.03
2022-08-08T08:47:58.680Z,96129.91
2022-08-08T08:50:35.537Z,96131.56
2022-08-08T08:53:54.617Z,96129.22
2022-08-08T08:56:05.654Z,96126.81
2022-08-08T08:58:42.243Z,96124.66
2022-08-08T09:01:20.059Z,96120.34
2022-08-08T09:03:51.788Z,96131.16
2022-08-08T09:06:34.257Z,96133.84
2022-08-08T09:09:19.292Z,96128.44
2022-08-08T09:12:07.821Z,96130.22
2022-08-08T09:14:42.447Z,96128.81
2022-08-08T09:17:18.863Z,96129.69
2022-08-08T09:21:56.000Z,96126.41
2022-08-08T09:22:39.373Z,96128.28
2022-08-08T09:25:10.595Z,96131.25
2022-08-08T09:27:57.971Z,96125.88
2022-08-08T09:30:34.614Z,96133.34
2022-08-08T09:33:53.985Z,96136.16
2022-08-08T09:35:54.143Z,96132.19
2022-08-08T09:38:52.012Z,96125.94
2022-08-08T09:41:54.738Z,96138.34
2022-08-08T09:44:34.459Z,96130.06
2022-08-08T09:47:25.672Z,96122.88
2022-08-08T09:50:03.284Z,96118.84
2022-08-08T09:52:54.043Z,96118.59
2022-08-08T09:55:31.702Z,96115.09
2022-08-08T09:58:25.965Z,96111.63
2022-08-08T10:01:00.977Z,96117.88
2022-08-08T10:03:39.668Z,96115.78
2022-08-08T10:06:16.209Z,96116.13
2022-08-08T10:08:46.696Z,96112.47
2022-08-08T10:12:26.968Z,96106.41
2022-08-08T10:14:07.403Z,96104.81
2022-08-08T10:16:55.884Z,96110.84
2022-08-08T10:19:57.887Z,96112.84
2022-08-08T10:22:27.939Z,96112.31
2022-08-08T10:25:03.073Z,96101.78
2022-08-08T10:27:41.413Z,96113.84
2022-08-08T10:30:16.158Z,96105.56
2022-08-08T10:33:00.038Z,96108.47
2022-08-08T10:36:08.567Z,96102.63
2022-08-08T10:38:21.167Z,96099.81
2022-08-08T10:40:53.591Z,96102.47
2022-08-08T10:43:23.173Z,96095.63
2022-08-08T10:45:57.329Z,96097.13
2022-08-08T10:48:57.044Z,96101.47
2022-08-08T10:51:31.049Z,96102.50
2022-08-08T10:54:02.248Z,96105.06
2022-08-08T10:56:35.156Z,96096.44
2022-08-08T10:59:07.783Z,96098.84
2022-08-08T11:01:38.606Z,96086.81
2022-08-08T11:04:10.882Z,96091.81
2022-08-08T11:06:41.958Z,96088.66
2022-08-08T11:09:19.684Z,96091.78
2022-08-08T11:12:06.127Z,96098.44
2022-08-08T11:14:50.302Z,96088.84
2022-08-08T11:17:59.907Z,96082.00
2022-08-08T11:20:12.839Z,96087.94
2022-08-08T11:22:41.543Z,96088.31
2022-08-08T11:25:14.342Z,96081.31
2022-08-08T11:27:46.685Z,96085.66
2022-08-08T11:30:20.314Z,96072.56
2022-08-08T11:32:55.282Z,96075.97
2022-08-08T11:35:37.779Z,96085.75
2022-08-08T11:38:35.602Z,96085.22
2022-08-08T11:41:00.256Z,96079.13
2022-08-08T11:43:38.823Z,96075.22
2022-08-08T11:46:14.460Z,96071.31
2022-08-08T11:48:47.812Z,96064.38
2022-08-08T11:51:30.719Z,96078.94
2022-08-08T11:54:27.261Z,96077.47
2022-08-08T11:56:57.613Z,96067.00
2022-08-08T11:59:57.889Z,96071.84
2022-08-08T12:02:32.240Z,96059.63
2022-08-08T12:05:02.879Z,96060.91
2022-08-08T12:07:31.993Z,96059.03
2022-08-08T12:10:11.831Z,96061.84
2022-08-08T12:12:48.657Z,96062.34
2022-08-08T12:15:28.427Z,96059.53
2022-08-08T12:17:56.133Z,96057.06
2022-08-08T12:20:25.262Z,96047.59
2022-08-08T12:22:54.058Z,96055.31
2022-08-08T12:25:29.910Z,96052.31
2022-08-08T12:28:15.741Z,96054.72
2022-08-08T12:30:49.949Z,96047.47
2022-08-08T12:33:19.516Z,96056.78
2022-08-08T12:35:52.603Z,96050.66
2022-08-08T12:38:30.412Z,96049.00
2022-08-08T12:41:10.569Z,96041.84
2022-08-08T12:44:00.477Z,96046.19
2022-08-08T12:46:29.692Z,96035.84
2022-08-08T12:49:25.576Z,96036.97
2022-08-08T12:51:58.407Z,96042.09
2022-08-08T12:54:33.278Z,96036.53
2022-08-08T12:57:14.428Z,96035.13
2022-08-08T13:00:03.613Z,96035.44
2022-08-08T13:02:35.898Z,96036.03
2022-08-08T13:05:15.682Z,96041.25
2022-08-08T13:08:03.461Z,96035.19
2022-08-08T13:10:36.582Z,96033.00
2022-08-08T13:13:28.426Z,96028.16
2022-08-08T13:19:01.749Z,96025.75
2022-08-08T13:21:53.429Z,96029.28
2022-08-08T13:24:40.923Z,96029.28
2022-08-08T13:27:15.242Z,96032.50
2022-08-08T13:29:51.366Z,96022.25
2022-08-08T13:32:25.228Z,96013.63
2022-08-08T13:34:56.063Z,96014.72
2022-08-08T13:37:51.821Z,96009.84
2022-08-08T13:40:18.099Z,96014.13
2022-08-08T13:42:55.815Z,96014.16
2022-08-08T13:45:24.809Z,96010.31
2022-08-08T13:47:58.039Z,96012.53
2022-08-08T13:50:36.350Z,96006.56
2022-08-08T13:53:24.848Z,96003.19
2022-08-08T13:56:01.165Z,96013.63
2022-08-08T13:58:29.663Z,96015.25
2022-08-08T14:00:57.844Z,96010.63
2022-08-08T14:03:52.191Z,96005.09
2022-08-08T14:06:20.474Z,96007.34
2022-08-08T14:09:25.015Z,95995.94
2022-08-08T14:11:49.855Z,95998.44
2022-08-08T14:14:20.887Z,95998.97
2022-08-08T14:16:53.996Z,95996.50
2022-08-08T14:19:57.815Z,95994.28
2022-08-08T14:22:24.793Z,95993.59
2022-08-08T14:24:59.842Z,96007.75
2022-08-08T14:27:30.093Z,96002.22
2022-08-08T14:30:00.852Z,95994.81
2022-08-08T14:32:30.737Z,95995.91
2022-08-08T14:35:04.590Z,95996.91
2022-08-08T14:37:43.301Z,95994.63
2022-08-08T14:40:29.736Z,95994.84
2022-08-08T14:42:59.786Z,95993.13
2022-08-08T14:45:47.171Z,95995.84
2022-08-08T14:48:34.156Z,95991.84
2022-08-08T14:51:08.176Z,95993.03
2022-08-08T14:53:55.531Z,95983.66
2022-08-08T14:56:25.697Z,95992.81
2022-08-08T14:58:54.252Z,95986.78
2022-08-08T15:01:40.951Z,95998.75
2022-08-08T15:04:10.393Z,95991.19
2022-08-08T15:06:42.347Z,95994.28
2022-08-08T15:09:13.235Z,95994.72
2022-08-08T15:11:46.362Z,95998.22
2022-08-08T15:14:25.183Z,95995.44
2022-08-08T15:16:55.312Z,95997.00
2022-08-08T15:19:28.169Z,95999.84
2022-08-08T15:21:57.839Z,95997.44
2022-08-08T15:24:31.739Z,95983.78
2022-08-08T15:27:12.112Z,95979.75
2022-08-08T15:29:48.270Z,95989.53
2022-08-08T15:32:19.794Z,95987.44
2022-08-08T15:34:49.093Z,95991.06
2022-08-08T15:37:19.054Z,95980.19
2022-08-08T15:39:48.619Z,95988.34
2022-08-08T15:42:32.645Z,95988.13
2022-08-08T15:45:01.558Z,95990.25
2022-08-08T15:47:31.296Z,95985.47
2022-08-08T15:49:59.976Z,95982.72
2022-08-08T15:52:28.167Z,95973.00
2022-08-08T15:54:57.874Z,95981.00
2022-08-08T15:57:26.435Z,95978.47
2022-08-08T16:00:18.005Z,95983.53
2022-08-08T16:02:50.771Z,95979.78
2022-08-08T16:05:21.217Z,95978.56
2022-08-08T16:07:52.368Z,95971.88
2022-08-08T16:13:04.462Z,95974.13
2022-08-08T16:13:29.944Z,95976.63
2022-08-08T16:16:16.516Z,95978.03
2022-08-08T16:18:57.300Z,95976.28
2022-08-08T16:21:32.044Z,95981.88
2022-08-08T16:24:02.115Z,95979.53
2022-08-08T16:26:35.208Z,95977.09
2022-08-08T16:29:08.136Z,95986.88
2022-08-08T16:31:42.040Z,95984.66
2022-08-08T16:34:17.167Z,95975.94
2022-08-08T16:36:49.389Z,95976.94
2022-08-08T16:39:48.923Z,95975.53
2022-08-08T16:42:08.224Z,95990.09
2022-08-08T16:44:47.336Z,95981.03
2022-08-08T16:47:40.163Z,95983.78
2022-08-08T16:50:14.442Z,95980.56
2022-08-08T16:55:22.957Z,95987.94
2022-08-08T16:55:55.368Z,95991.50
2022-08-08T16:58:22.240Z,95991.53
2022-08-08T17:00:53.665Z,95991.56
2022-08-08T17:03:25.196Z,95982.13
2022-08-08T17:06:37.008Z,95992.75
2022-08-08T17:08:57.715Z,95989.34
2022-08-08T17:11:28.439Z,95984.19
2022-08-08T17:14:18.853Z,95995.00
2022-08-08T17:16:57.561Z,96003.66
2022-08-08T17:19:28.811Z,95997.41
2022-08-08T17:21:57.311Z,95991.22
2022-08-08T17:24:27.960Z,95995.03
2022-08-08T17:26:58.655Z,95997.22
2022-08-08T17:29:28.699Z,96001.06
2022-08-08T17:32:02.589Z,96000.03
2022-08-08T17:34:48.251Z,96004.94
2022-08-08T17:37:19.293Z,96005.81
2022-08-08T17:40:05.767Z,96008.81
2022-08-08T17:42:47.245Z,96007.75
2022-08-08T17:45:22.649Z,96022.38
2022-08-08T17:47:53.920Z,96020.22
2022-08-08T17:50:22.441Z,96027.28
2022-08-08T17:52:51.063Z,96031.34
2022-08-08T17:56:05.974Z,96022.97
2022-08-08T17:58:06.610Z,96032.19
2022-08-08T18:00:41.136Z,96041.31
2022-08-08T18:03:13.126Z,96035.09
2022-08-08T18:05:44.243Z,96035.91
2022-08-08T18:08:24.671Z,96046.72
2022-08-08T18:11:07.206Z,96052.38
2022-08-08T18:13:41.919Z,96051.06
2022-08-08T18:16:12.714Z,96051.31
2022-08-08T18:18:45.464Z,96064.03
2022-08-08T18:21:25.190Z,96058.63
2022-08-08T18:24:03.795Z,96058.59
2022-08-08T18:26:33.448Z,96060.19
2022-08-08T18:29:02.152Z,96060.13
2022-08-08T18:31:35.434Z,96060.56
2022-08-08T18:34:11.701Z,96058.34
2022-08-08T18:36:55.581Z,96064.19
2022-08-08T18:39:28.359Z,96070.59
2022-08-08T18:42:03.311Z,96068.63
2022-08-08T18:44:32.968Z,96063.16
2022-08-08T18:47:04.460Z,96067.69
2022-08-08T18:49:57.784Z,96069.72
2022-08-08T18:52:23.454Z,96071.78
2022-08-08T18:54:59.281Z,96081.97
2022-08-08T18:57:31.481Z,96075.41
2022-08-08T19:00:00.642Z,96081.78
2022-08-08T19:02:30.375Z,96080.41
2022-08-08T19:04:58.893Z,96084.38
2022-08-08T19:07:29.556Z,96082.94
2022-08-08T19:10:15.513Z,96096.59
2022-08-08T19:12:49.935Z,96097.63
2022-08-08T19:15:23.818Z,96103.69
2022-08-08T19:18:32.216Z,96101.13
2022-08-08T19:20:53.819Z,96095.63
2022-08-08T19:23:21.940Z,96100.38
2022-08-08T19:26:19.856Z,96102.19
2022-08-08T19:28:41.660Z,96113.13
2022-08-08T19:31:13.003Z,96118.38
2022-08-08T19:34:04.908Z,96115.47
2022-08-08T19:36:35.242Z,96116.56
2022-08-08T19:39:03.023Z,96117.25
2022-08-08T19:41:34.037Z,96124.03
2022-08-08T19:44:12.627Z,96120.81
2022-08-08T19:46:41.270Z,96130.22
2022-08-08T19:49:10.282Z,96132.00
2022-08-08T19:51:43.274Z,96128.66
2022-08-08T19:54:12.156Z,96125.75
2022-08-08T19:56:41.439Z,96127.75
2022-08-08T19:59:22.293Z,96128.63
2022-08-08T20:02:03.540Z,96129.34
2022-08-08T20:04:34.148Z,96132.88
2022-08-08T20:07:05.094Z,96128.94
2022-08-08T20:09:55.711Z,96137.56
2022-08-08T20:12:32.991Z,96137.13
2022-08-08T20:15:15.152Z,96130.00
2022-08-08T20:17:45.946Z,96133.72
2022-08-08T20:20:19.090Z,96126.84
2022-08-08T20:22:54.042Z,96133.13
2022-08-08T20:25:26.506Z,96133.59
2022-08-08T20:27:58.325Z,96135.13
2022-08-08T20:30:52.373Z,96135.91
2022-08-08T20:35:58.029Z,96145.66
2022-08-08T20:38:29.158Z,96145.78
2022-08-08T20:41:00.456Z,96145.88
2022-08-08T20:43:43.501Z,96145.16
2022-08-08T20:46:16.247Z,96139.50
2022-08-08T20:48:45.059Z,96141.59
2022-08-08T20:51:14.568Z,96130.06
2022-08-08T20:53:59.392Z,96137.16
2022-08-08T20:56:34.615Z,96142.97
2022-08-08T20:59:05.707Z,96138.38
2022-08-08T21:02:05.463Z,96143.13
2022-08-08T21:04:23.210Z,96140.31
2022-08-08T21:06:54.097Z,96135.44
2022-08-08T21:09:22.091Z,96137.97
2022-08-08T21:11:52.070Z,96140.47
2022-08-08T21:14:33.767Z,96133.50
2022-08-08T21:17:03.083Z,96136.41
2022-08-08T21:19:45.751Z,96142.22
2022-08-08T21:22:16.961Z,96141.25
2022-08-08T21:24:52.343Z,96133.69
2022-08-08T21:28:06.056Z,96141.13
2022-08-08T21:30:18.909Z,96130.50
2022-08-08T21:32:51.121Z,96138.75
2022-08-08T21:36:17.234Z,96134.88
2022-08-08T21:38:16.745Z,96136.97
2022-08-08T21:40:55.984Z,96139.94
2022-08-08T21:43:25.910Z,96136.06
2022-08-08T21:48:06.283Z,96137.34
2022-08-08T21:48:51.644Z,96147.25
2022-08-08T21:54:18.418Z,96136.19
2022-08-08T21:54:36.811Z,96142.03
2022-08-08T21:56:59.608Z,96141.94
2022-08-08T21:59:43.875Z,96152.47
2022-08-08T22:02:16.679Z,96147.97
2022-08-08T22:04:50.837Z,96151.28
2022-08-08T22:07:20.012Z,96140.88
2022-08-08T22:09:56.191Z,96139.88
2022-08-08T22:12:24.175Z,96151.84
2022-08-08T22:14:53.033Z,96142.63
2022-08-08T22:17:20.981Z,96158.16
2022-08-08T22:20:12.554Z,96152.03
2022-08-08T22:22:38.516Z,96148.41
2022-08-08T22:25:19.695Z,96148.41
2022-08-08T22:28:02.860Z,96154.59
2022-08-08T22:30:33.639Z,96144.81
2022-08-08T22:33:02.036Z,96150.34
2022-08-08T22:36:04.529Z,96153.84
2022-08-08T22:38:17.934Z,96155.50
2022-08-08T22:40:49.058Z,96160.88
2022-08-08T22:43:17.321Z,96164.16
2022-08-08T22:45:46.728Z,96162.38
2022-08-08T22:48:21.827Z,96154.16
2022-08-08T22:50:50.261Z,96152.75
2022-08-08T22:54:30.867Z,96154.41
2022-08-08T22:56:08.403Z,96149.53
2022-08-08T22:58:36.326Z,96151.41
2022-08-08T23:01:26.702Z,96151.63
2022-08-08T23:03:56.618Z,96150.66
2022-08-08T23:06:25.016Z,96148.22
2022-08-08T23:08:55.683Z,96145.72
2022-08-08T23:11:31.464Z,96148.22
2022-08-08T23:14:17.770Z,96147.16
2022-08-08T23:16:57.755Z,96143.88
2022-08-08T23:19:31.018Z,96139.56
2022-08-08T23:22:02.165Z,96139.34
2022-08-08T23:24:36.670Z,96141.22
2022-08-08T23:27:06.816Z,96140.59
2022-08-08T23:29:34.649Z,96137.09
2022-08-08T23:32:04.704Z,96135.25
2022-08-08T23:34:33.874Z,96137.31
2022-08-08T23:37:02.588Z,96138.97
2022-08-08T23:39:42.023Z,96140.00
2022-08-08T23:42:21.413Z,96141.47
2022-08-08T23:44:49.387Z,96139.00
2022-08-08T23:49:01.797Z,96139.06
2022-08-08T23:50:06.003Z,96130.88
2022-08-08T23:52:34.703Z,96132.09
2022-08-08T23:55:14.595Z,96132.09
2022-08-08T23:57:53.421Z,96136.59
